sensor_id;sensor_type;location;lat;lon;timestamp;pressure;altitude;pressure_sealevel;temperature;humidity
64521;BME280;50896;46.714;17.322;2022-08-03T00:00:23;100564.88;;;20.44;72.04
64521;BME280;50896;46.714;17.322;2022-08-03T00:02:51;100564.88;;;20.44;72.18
64521;BME280;50896;46.714;17.322;2022-08-03T00:05:19;100562.38;;;20.43;72.15
64521;BME280;50896;46.714;17.322;2022-08-03T00:07:45;100569.06;;;20.40;72.40
64521;BME280;50896;46.714;17.322;2022-08-03T00:10:15;100568.72;;;20.30;72.76
64521;BME280;50896;46.714;17.322;2022-08-03T00:12:42;100570.91;;;20.21;73.20
64521;BME280;50896;46.714;17.322;2022-08-03T00:15:09;100566.00;;;20.11;73.42
64521;BME280;50896;46.714;17.322;2022-08-03T00:17:43;100568.97;;;20.03;73.87
64521;BME280;50896;46.714;17.322;2022-08-03T00:20:22;100576.50;;;20.01;73.82
64521;BME280;50896;46.714;17.322;2022-08-03T00:22:50;100566.34;;;19.96;74.25
64521;BME280;50896;46.714;17.322;2022-08-03T00:25:17;100575.09;;;19.92;74.49
64521;BME280;50896;46.714;17.322;2022-08-03T00:27:43;100569.16;;;19.83;74.48
64521;BME280;50896;46.714;17.322;2022-08-03T00:30:13;100573.13;;;19.74;74.90
64521;BME280;50896;46.714;17.322;2022-08-03T00:32:43;100573.84;;;19.62;75.39
64521;BME280;50896;46.714;17.322;2022-08-03T00:35:11;100575.09;;;19.60;75.50
64521;BME280;50896;46.714;17.322;2022-08-03T00:37:58;100565.56;;;19.57;75.65
64521;BME280;50896;46.714;17.322;2022-08-03T00:40:25;100566.91;;;19.48;75.63
64521;BME280;50896;46.714;17.322;2022-08-03T00:43:00;100564.06;;;19.36;76.27
64521;BME280;50896;46.714;17.322;2022-08-03T00:45:35;100568.19;;;19.39;76.53
64521;BME280;50896;46.714;17.322;2022-08-03T00:48:04;100575.25;;;19.40;76.15
64521;BME280;50896;46.714;17.322;2022-08-03T00:50:52;100572.91;;;19.43;75.94
64521;BME280;50896;46.714;17.322;2022-08-03T00:53:19;100573.19;;;19.35;76.36
64521;BME280;50896;46.714;17.322;2022-08-03T00:55:46;100572.59;;;19.33;76.36
64521;BME280;50896;46.714;17.322;2022-08-03T00:58:13;100570.13;;;19.25;76.63
64521;BME280;50896;46.714;17.322;2022-08-03T01:00:41;100568.09;;;19.20;76.85
64521;BME280;50896;46.714;17.322;2022-08-03T01:03:09;100570.38;;;19.17;76.72
64521;BME280;50896;46.714;17.322;2022-08-03T01:05:46;100568.31;;;19.19;76.74
64521;BME280;50896;46.714;17.322;2022-08-03T01:08:21;100569.94;;;19.20;76.96
64521;BME280;50896;46.714;17.322;2022-08-03T01:16:33;100569.63;;;19.03;77.52
64521;BME280;50896;46.714;17.322;2022-08-03T01:19:23;100574.44;;;18.94;77.68
64521;BME280;50896;46.714;17.322;2022-08-03T01:27:18;100571.16;;;18.78;77.85
64521;BME280;50896;46.714;17.322;2022-08-03T01:32:17;100581.72;;;18.73;78.52
64521;BME280;50896;46.714;17.322;2022-08-03T01:35:09;100576.78;;;18.70;79.33
64521;BME280;50896;46.714;17.322;2022-08-03T01:38:04;100574.91;;;18.71;78.97
64521;BME280;50896;46.714;17.322;2022-08-03T01:40:33;100572.63;;;18.68;78.94
64521;BME280;50896;46.714;17.322;2022-08-03T01:43:03;100567.25;;;18.68;78.35
64521;BME280;50896;46.714;17.322;2022-08-03T01:45:32;100568.69;;;18.70;78.72
64521;BME280;50896;46.714;17.322;2022-08-03T01:48:00;100566.66;;;18.59;78.91
64521;BME280;50896;46.714;17.322;2022-08-03T01:50:29;100559.63;;;18.51;78.80
64521;BME280;50896;46.714;17.322;2022-08-03T01:52:57;100562.97;;;18.47;78.98
64521;BME280;50896;46.714;17.322;2022-08-03T01:55:25;100565.22;;;18.50;79.78
64521;BME280;50896;46.714;17.322;2022-08-03T01:57:55;100558.59;;;18.45;79.13
64521;BME280;50896;46.714;17.322;2022-08-03T02:00:33;100559.03;;;18.42;79.42
64521;BME280;50896;46.714;17.322;2022-08-03T02:03:04;100561.94;;;18.48;79.99
64521;BME280;50896;46.714;17.322;2022-08-03T02:05:32;100560.88;;;18.49;79.82
64521;BME280;50896;46.714;17.322;2022-08-03T02:08:02;100561.94;;;18.48;80.09
64521;BME280;50896;46.714;17.322;2022-08-03T02:10:31;100560.69;;;18.43;79.69
64521;BME280;50896;46.714;17.322;2022-08-03T02:13:04;100561.31;;;18.39;80.06
64521;BME280;50896;46.714;17.322;2022-08-03T02:15:32;100558.81;;;18.37;80.26
64521;BME280;50896;46.714;17.322;2022-08-03T02:18:00;100551.19;;;18.34;80.50
64521;BME280;50896;46.714;17.322;2022-08-03T02:20:29;100566.09;;;18.30;80.39
64521;BME280;50896;46.714;17.322;2022-08-03T02:22:58;100561.97;;;18.21;80.26
64521;BME280;50896;46.714;17.322;2022-08-03T02:25:26;100559.91;;;18.23;80.77
64521;BME280;50896;46.714;17.322;2022-08-03T02:27:56;100562.81;;;18.21;80.58
64521;BME280;50896;46.714;17.322;2022-08-03T02:30:32;100563.41;;;18.17;80.22
64521;BME280;50896;46.714;17.322;2022-08-03T02:33:04;100568.19;;;18.15;80.34
64521;BME280;50896;46.714;17.322;2022-08-03T02:35:34;100564.69;;;18.07;80.40
64521;BME280;50896;46.714;17.322;2022-08-03T02:38:04;100565.50;;;18.01;80.44
64521;BME280;50896;46.714;17.322;2022-08-03T02:40:33;100571.72;;;18.02;80.29
64521;BME280;50896;46.714;17.322;2022-08-03T02:43:05;100574.63;;;18.00;81.33
64521;BME280;50896;46.714;17.322;2022-08-03T02:45:35;100574.81;;;18.05;80.70
64521;BME280;50896;46.714;17.322;2022-08-03T02:48:15;100575.66;;;18.13;81.71
64521;BME280;50896;46.714;17.322;2022-08-03T02:50:44;100575.22;;;18.09;81.73
64521;BME280;50896;46.714;17.322;2022-08-03T02:53:11;100579.34;;;18.32;81.78
64521;BME280;50896;46.714;17.322;2022-08-03T02:55:40;100567.31;;;18.41;80.52
64521;BME280;50896;46.714;17.322;2022-08-03T02:58:12;100566.69;;;18.45;79.92
64521;BME280;50896;46.714;17.322;2022-08-03T03:00:40;100571.69;;;18.42;79.90
64521;BME280;50896;46.714;17.322;2022-08-03T03:03:10;100577.50;;;18.32;80.61
64521;BME280;50896;46.714;17.322;2022-08-03T03:05:39;100586.81;;;18.30;80.00
64521;BME280;50896;46.714;17.322;2022-08-03T03:08:22;100583.09;;;18.24;80.56
64521;BME280;50896;46.714;17.322;2022-08-03T03:10:56;100575.22;;;18.16;80.05
64521;BME280;50896;46.714;17.322;2022-08-03T03:13:24;100591.78;;;18.13;80.41
64521;BME280;50896;46.714;17.322;2022-08-03T03:15:53;100590.34;;;18.03;80.30
64521;BME280;50896;46.714;17.322;2022-08-03T03:18:22;100583.28;;;17.96;79.99
64521;BME280;50896;46.714;17.322;2022-08-03T03:20:51;100588.44;;;17.84;80.49
64521;BME280;50896;46.714;17.322;2022-08-03T03:23:21;100591.13;;;17.77;80.82
64521;BME280;50896;46.714;17.322;2022-08-03T03:25:50;100590.69;;;17.80;80.88
64521;BME280;50896;46.714;17.322;2022-08-03T03:28:18;100586.16;;;17.81;81.01
64521;BME280;50896;46.714;17.322;2022-08-03T03:30:45;100587.22;;;17.86;80.19
64521;BME280;50896;46.714;17.322;2022-08-03T03:33:19;100593.19;;;17.82;80.68
64521;BME280;50896;46.714;17.322;2022-08-03T03:35:46;100603.13;;;17.81;80.33
64521;BME280;50896;46.714;17.322;2022-08-03T03:38:14;100589.06;;;17.72;80.43
64521;BME280;50896;46.714;17.322;2022-08-03T03:40:40;100597.31;;;17.71;80.43
64521;BME280;50896;46.714;17.322;2022-08-03T03:43:09;100594.22;;;17.74;80.29
64521;BME280;50896;46.714;17.322;2022-08-03T03:45:36;100584.28;;;17.68;80.22
64521;BME280;50896;46.714;17.322;2022-08-03T03:48:04;100586.75;;;17.76;79.68
64521;BME280;50896;46.714;17.322;2022-08-03T18:01:43;100400.41;;;27.75;39.73
64521;BME280;50896;46.714;17.322;2022-08-03T18:04:48;100403.97;;;27.66;40.66
64521;BME280;50896;46.714;17.322;2022-08-03T18:07:24;100408.13;;;27.58;41.05
64521;BME280;50896;46.714;17.322;2022-08-03T18:10:07;100410.03;;;27.52;41.16
64521;BME280;50896;46.714;17.322;2022-08-03T18:12:50;100406.22;;;27.48;40.89
64521;BME280;50896;46.714;17.322;2022-08-03T18:15:45;100417.13;;;27.38;41.12
64521;BME280;50896;46.714;17.322;2022-08-03T18:18:10;100416.03;;;27.28;41.37
64521;BME280;50896;46.714;17.322;2022-08-03T18:20:37;100414.41;;;27.33;41.91
64521;BME280;50896;46.714;17.322;2022-08-03T18:23:10;100426.41;;;27.26;42.20
64521;BME280;50896;46.714;17.322;2022-08-03T18:25:58;100425.84;;;27.19;42.15
64521;BME280;50896;46.714;17.322;2022-08-03T18:28:26;100424.78;;;27.05;42.38
64521;BME280;50896;46.714;17.322;2022-08-03T18:30:54;100438.38;;;26.94;42.72
64521;BME280;50896;46.714;17.322;2022-08-03T18:33:22;100438.91;;;26.71;42.36
64521;BME280;50896;46.714;17.322;2022-08-03T18:36:11;100436.94;;;26.61;42.60
64521;BME280;50896;46.714;17.322;2022-08-03T18:38:48;100435.81;;;26.36;42.71
64521;BME280;50896;46.714;17.322;2022-08-03T18:41:19;100440.38;;;26.25;43.17
64521;BME280;50896;46.714;17.322;2022-08-03T18:44:06;100448.19;;;26.01;43.88
64521;BME280;50896;46.714;17.322;2022-08-03T18:47:26;100438.50;;;25.78;44.14
64521;BME280;50896;46.714;17.322;2022-08-03T18:51:08;100456.59;;;25.57;44.17
64521;BME280;50896;46.714;17.322;2022-08-03T18:56:42;100458.81;;;25.00;44.85
64521;BME280;50896;46.714;17.322;2022-08-03T18:59:29;100463.56;;;24.83;44.95
64521;BME280;50896;46.714;17.322;2022-08-03T19:02:26;100459.19;;;24.60;45.29
64521;BME280;50896;46.714;17.322;2022-08-03T19:05:03;100468.66;;;24.35;45.87
64521;BME280;50896;46.714;17.322;2022-08-03T19:07:34;100467.22;;;24.05;44.99
64521;BME280;50896;46.714;17.322;2022-08-03T19:10:07;100463.69;;;24.04;44.16
64521;BME280;50896;46.714;17.322;2022-08-03T19:12:41;100466.06;;;23.84;45.90
64521;BME280;50896;46.714;17.322;2022-08-03T19:15:12;100472.59;;;23.66;46.36
64521;BME280;50896;46.714;17.322;2022-08-03T19:17:46;100469.56;;;23.79;45.32
64521;BME280;50896;46.714;17.322;2022-08-03T19:20:21;100470.78;;;23.71;44.52
64521;BME280;50896;46.714;17.322;2022-08-03T19:22:51;100470.69;;;23.83;45.16
64521;BME280;50896;46.714;17.322;2022-08-03T19:25:18;100463.94;;;23.69;46.18
64521;BME280;50896;46.714;17.322;2022-08-03T19:28:00;100475.63;;;23.52;45.62
64521;BME280;50896;46.714;17.322;2022-08-03T19:30:33;100474.16;;;23.28;46.42
64521;BME280;50896;46.714;17.322;2022-08-03T19:33:07;100474.63;;;23.25;46.25
64521;BME280;50896;46.714;17.322;2022-08-03T19:35:35;100476.69;;;23.17;46.36
64521;BME280;50896;46.714;17.322;2022-08-03T19:38:23;100474.41;;;22.97;48.01
64521;BME280;50896;46.714;17.322;2022-08-03T19:41:00;100474.72;;;23.01;47.88
64521;BME280;50896;46.714;17.322;2022-08-03T19:46:43;100480.16;;;23.01;47.73
64521;BME280;50896;46.714;17.322;2022-08-03T19:49:15;100478.25;;;22.84;48.50
64521;BME280;50896;46.714;17.322;2022-08-03T19:51:44;100485.09;;;22.75;48.34
64521;BME280;50896;46.714;17.322;2022-08-03T19:54:34;100485.75;;;22.53;48.49
64521;BME280;50896;46.714;17.322;2022-08-03T19:57:16;100480.16;;;22.43;48.42
64521;BME280;50896;46.714;17.322;2022-08-03T19:59:46;100484.84;;;22.24;48.98
64521;BME280;50896;46.714;17.322;2022-08-03T20:02:17;100477.25;;;22.09;48.69
64521;BME280;50896;46.714;17.322;2022-08-03T20:04:56;100483.47;;;22.10;48.36
64521;BME280;50896;46.714;17.322;2022-08-03T20:07:26;100494.91;;;22.00;48.49
64521;BME280;50896;46.714;17.322;2022-08-03T20:09:54;100494.31;;;21.86;48.76
64521;BME280;50896;46.714;17.322;2022-08-03T20:12:24;100496.88;;;21.81;49.25
64521;BME280;50896;46.714;17.322;2022-08-03T20:15:11;100499.94;;;21.61;49.90
64521;BME280;50896;46.714;17.322;2022-08-03T20:17:38;100493.97;;;21.59;49.90
64521;BME280;50896;46.714;17.322;2022-08-03T20:20:28;100502.09;;;21.40;50.35
64521;BME280;50896;46.714;17.322;2022-08-03T20:22:56;100497.00;;;21.20;50.64
64521;BME280;50896;46.714;17.322;2022-08-03T20:25:29;100485.81;;;21.16;50.84
64521;BME280;50896;46.714;17.322;2022-08-03T20:28:19;100499.34;;;21.16;50.60
64521;BME280;50896;46.714;17.322;2022-08-03T20:30:52;100496.84;;;21.03;50.92
64521;BME280;50896;46.714;17.322;2022-08-03T20:33:19;100493.53;;;21.01;51.17
64521;BME280;50896;46.714;17.322;2022-08-03T20:36:06;100496.22;;;21.01;51.29
64521;BME280;50896;46.714;17.322;2022-08-03T20:38:35;100503.28;;;21.02;51.20
64521;BME280;50896;46.714;17.322;2022-08-03T20:41:12;100495.03;;;20.97;51.21
64521;BME280;50896;46.714;17.322;2022-08-03T20:43:40;100498.06;;;20.89;51.27
64521;BME280;50896;46.714;17.322;2022-08-03T20:46:07;100491.59;;;20.78;51.97
64521;BME280;50896;46.714;17.322;2022-08-03T20:48:55;100497.84;;;20.90;51.65
64521;BME280;50896;46.714;17.322;2022-08-03T20:51:25;100494.94;;;20.92;52.01
64521;BME280;50896;46.714;17.322;2022-08-03T20:54:14;100487.16;;;20.95;52.06
64521;BME280;50896;46.714;17.322;2022-08-03T20:56:56;100487.88;;;20.91;52.56
64521;BME280;50896;46.714;17.322;2022-08-03T20:59:23;100480.16;;;20.76;53.02
64521;BME280;50896;46.714;17.322;2022-08-03T21:02:13;100492.81;;;20.57;53.08
64521;BME280;50896;46.714;17.322;2022-08-03T21:04:54;100490.16;;;20.38;53.81
64521;BME280;50896;46.714;17.322;2022-08-03T21:07:22;100497.44;;;20.19;54.08
64521;BME280;50896;46.714;17.322;2022-08-03T21:09:52;100500.34;;;20.18;54.33
64521;BME280;50896;46.714;17.322;2022-08-03T21:12:31;100497.72;;;20.11;54.61
64521;BME280;50896;46.714;17.322;2022-08-03T21:15:03;100500.34;;;20.18;53.90
64521;BME280;50896;46.714;17.322;2022-08-03T21:17:31;100503.41;;;20.21;53.22
64521;BME280;50896;46.714;17.322;2022-08-03T21:20:09;100507.25;;;20.32;53.17
64521;BME280;50896;46.714;17.322;2022-08-03T21:22:37;100505.06;;;20.22;53.49
64521;BME280;50896;46.714;17.322;2022-08-03T21:25:06;100509.63;;;20.22;53.48
64521;BME280;50896;46.714;17.322;2022-08-03T21:27:36;100502.16;;;20.24;53.49
64521;BME280;50896;46.714;17.322;2022-08-03T21:30:06;100511.91;;;20.25;53.36
64521;BME280;50896;46.714;17.322;2022-08-03T21:32:33;100513.19;;;20.22;53.64
64521;BME280;50896;46.714;17.322;2022-08-03T21:35:01;100518.13;;;20.25;53.13
64521;BME280;50896;46.714;17.322;2022-08-03T21:37:28;100510.03;;;20.25;53.27
64521;BME280;50896;46.714;17.322;2022-08-03T21:39:55;100518.69;;;20.09;53.89
64521;BME280;50896;46.714;17.322;2022-08-03T21:42:22;100514.97;;;20.10;53.39
64521;BME280;50896;46.714;17.322;2022-08-03T21:44:53;100514.16;;;20.09;53.84
64521;BME280;50896;46.714;17.322;2022-08-03T21:47:22;100515.84;;;20.04;53.83
64521;BME280;50896;46.714;17.322;2022-08-03T21:49:55;100513.63;;;19.94;54.22
64521;BME280;50896;46.714;17.322;2022-08-03T21:52:44;100509.84;;;20.02;53.95
64521;BME280;50896;46.714;17.322;2022-08-03T21:55:11;100511.34;;;19.97;54.50
64521;BME280;50896;46.714;17.322;2022-08-03T21:57:51;100512.44;;;19.90;54.58
64521;BME280;50896;46.714;17.322;2022-08-03T22:00:20;100510.03;;;19.82;54.81
64521;BME280;50896;46.714;17.322;2022-08-03T22:02:52;100514.41;;;19.76;55.31
64521;BME280;50896;46.714;17.322;2022-08-03T22:05:22;100513.63;;;19.69;55.29
64521;BME280;50896;46.714;17.322;2022-08-03T22:08:12;100516.31;;;19.69;55.46
64521;BME280;50896;46.714;17.322;2022-08-03T22:10:42;100520.09;;;19.68;55.71
64521;BME280;50896;46.714;17.322;2022-08-03T22:13:11;100515.34;;;19.63;55.99
64521;BME280;50896;46.714;17.322;2022-08-03T22:15:38;100521.16;;;19.60;56.09
64521;BME280;50896;46.714;17.322;2022-08-03T22:18:05;100526.38;;;19.55;55.81
64521;BME280;50896;46.714;17.322;2022-08-03T22:20:32;100534.31;;;19.50;55.62
64521;BME280;50896;46.714;17.322;2022-08-03T22:23:01;100518.38;;;19.16;57.42
64521;BME280;50896;46.714;17.322;2022-08-03T22:25:31;100527.13;;;19.37;57.28
64521;BME280;50896;46.714;17.322;2022-08-03T22:28:06;100526.34;;;19.29;57.14
64521;BME280;50896;46.714;17.322;2022-08-03T22:30:33;100528.41;;;19.34;57.60
64521;BME280;50896;46.714;17.322;2022-08-03T22:33:03;100531.84;;;19.48;56.77
64521;BME280;50896;46.714;17.322;2022-08-03T22:35:47;100530.28;;;19.59;57.00
64521;BME280;50896;46.714;17.322;2022-08-03T22:38:16;100517.47;;;19.54;56.96
64521;BME280;50896;46.714;17.322;2022-08-03T22:40:46;100526.38;;;19.55;57.59
64521;BME280;50896;46.714;17.322;2022-08-03T22:43:14;100521.56;;;19.63;57.00
64521;BME280;50896;46.714;17.322;2022-08-03T22:45:43;100523.91;;;19.53;57.19
64521;BME280;50896;46.714;17.322;2022-08-03T22:48:31;100525.78;;;19.53;57.65
64521;BME280;50896;46.714;17.322;2022-08-03T22:50:59;100529.19;;;19.41;58.03
64521;BME280;50896;46.714;17.322;2022-08-03T22:53:26;100529.91;;;19.30;58.35
64521;BME280;50896;46.714;17.322;2022-08-03T22:55:53;100521.84;;;19.23;58.14
64521;BME280;50896;46.714;17.322;2022-08-03T22:58:20;100530.38;;;19.20;58.22
64521;BME280;50896;46.714;17.322;2022-08-03T23:00:53;100531.66;;;19.11;58.53
64521;BME280;50896;46.714;17.322;2022-08-03T23:03:24;100527.75;;;19.07;59.03
64521;BME280;50896;46.714;17.322;2022-08-03T23:06:13;100524.91;;;18.95;58.93
64521;BME280;50896;46.714;17.322;2022-08-03T23:08:43;100525.31;;;18.92;58.67
64521;BME280;50896;46.714;17.322;2022-08-03T23:11:11;100525.50;;;18.97;58.92
64521;BME280;50896;46.714;17.322;2022-08-03T23:13:39;100524.03;;;19.01;58.93
64521;BME280;50896;46.714;17.322;2022-08-03T23:16:07;100525.31;;;18.92;59.27
64521;BME280;50896;46.714;17.322;2022-08-03T23:18:35;100527.63;;;18.95;59.01
64521;BME280;50896;46.714;17.322;2022-08-03T23:21:05;100522.41;;;18.93;58.23
64521;BME280;50896;46.714;17.322;2022-08-03T23:23:37;100518.88;;;19.00;58.34
64521;BME280;50896;46.714;17.322;2022-08-03T23:26:10;100523.16;;;19.07;57.31
64521;BME280;50896;46.714;17.322;2022-08-03T23:28:38;100520.84;;;19.18;57.76
64521;BME280;50896;46.714;17.322;2022-08-03T23:31:06;100520.38;;;19.27;57.30
64521;BME280;50896;46.714;17.322;2022-08-03T23:33:37;100517.19;;;19.37;55.63
64521;BME280;50896;46.714;17.322;2022-08-03T23:36:05;100520.25;;;19.41;55.81
64521;BME280;50896;46.714;17.322;2022-08-03T23:38:52;100513.06;;;19.35;56.01
64521;BME280;50896;46.714;17.322;2022-08-03T23:41:19;100510.81;;;19.32;56.98
64521;BME280;50896;46.714;17.322;2022-08-03T23:43:46;100518.13;;;19.24;57.09
64521;BME280;50896;46.714;17.322;2022-08-03T23:46:24;100515.47;;;19.18;57.18
64521;BME280;50896;46.714;17.322;2022-08-03T23:48:52;100508.19;;;19.18;57.69
64521;BME280;50896;46.714;17.322;2022-08-03T23:54:30;100511.03;;;19.30;57.20
64521;BME280;50896;46.714;17.322;2022-08-03T23:57:25;100512.25;;;19.34;56.89
